Hale, Missouri
Current Conditions -  °F | °C
As of 2:15 AM on Sunday 23 Nov 2014 (Local Time) from KMHL Reporting Station
Clear Clear  
Wind Chill: 52°   Ceiling: Unl
Heat Index: 52°   Visibility: 10mi
Dew Point: 52°   Wind: 5mph
Humidity: 100%   Direction: 120°ESE
Pressure: 29.7"   Gusts: NA
Location:  39.6°N, 93.34°W
Report Text: KMHL 230815Z AUTO 12004KT 10SM CLR 11/11 A2970 RMK AO2
Loading
Personal Weather Stations






























Interactive Weather Map New forecast layout! Learn more

10-Day Weather Forecast

Advertisements
Track Severe Weather on mobile